createdAt,value
2022-09-23T00:02:12.436Z,95.60
2022-09-23T00:04:41.673Z,95.70
2022-09-23T00:07:09.999Z,95.70
2022-09-23T00:09:38.179Z,95.70
2022-09-23T00:12:09.035Z,95.70
2022-09-23T00:14:40.095Z,95.70
2022-09-23T00:17:08.189Z,95.70
2022-09-23T00:19:36.625Z,95.80
2022-09-23T00:22:05.134Z,95.90
2022-09-23T00:24:33.494Z,95.90
2022-09-23T00:27:01.782Z,96.00
2022-09-23T00:29:29.915Z,96.00
2022-09-23T00:31:59.514Z,96.10
2022-09-23T00:34:27.678Z,96.10
2022-09-23T00:36:56.937Z,96.10
2022-09-23T00:39:26.130Z,96.10
2022-09-23T00:41:55.259Z,96.10
2022-09-23T00:44:42.839Z,96.50
2022-09-23T00:47:19.367Z,96.10
2022-09-23T00:49:53.655Z,96.20
2022-09-23T00:52:25.524Z,96.30
2022-09-23T00:54:56.477Z,96.30
2022-09-23T00:57:26.623Z,96.30
2022-09-23T00:59:55.171Z,96.30
2022-09-23T01:02:24.871Z,96.30
2022-09-23T01:04:53.334Z,96.40
2022-09-23T01:07:21.907Z,96.40
2022-09-23T01:09:50.884Z,96.40
2022-09-23T01:12:31.489Z,96.40
2022-09-23T01:15:08.967Z,96.40
2022-09-23T01:17:44.857Z,96.40
2022-09-23T01:20:48.175Z,96.50
2022-09-23T01:23:43.920Z,96.50
2022-09-23T01:26:29.514Z,96.50
2022-09-23T01:29:17.815Z,96.70
2022-09-23T01:31:55.173Z,96.80
2022-09-23T01:34:27.009Z,96.80
2022-09-23T01:37:00.423Z,96.90
2022-09-23T01:39:36.395Z,96.90
2022-09-23T01:42:17.065Z,96.90
2022-09-23T01:44:49.765Z,96.90
2022-09-23T01:47:22.837Z,96.90
2022-09-23T01:49:55.237Z,96.90
2022-09-23T01:52:29.571Z,96.90
2022-09-23T01:55:02.675Z,96.90
2022-09-23T01:57:34.833Z,96.90
2022-09-23T02:00:07.996Z,96.90
2022-09-23T02:02:44.449Z,96.90
2022-09-23T02:05:18.800Z,97.00
2022-09-23T02:07:52.982Z,97.00
2022-09-23T02:10:24.059Z,97.00
2022-09-23T02:12:57.457Z,96.90
2022-09-23T02:15:31.446Z,97.20
2022-09-23T02:18:04.546Z,97.20
2022-09-23T02:20:36.830Z,97.20
2022-09-23T02:23:08.769Z,97.20
2022-09-23T02:25:43.722Z,97.30
2022-09-23T02:28:17.243Z,97.30
2022-09-23T02:30:53.839Z,97.30
2022-09-23T02:33:29.991Z,97.30
2022-09-23T02:36:04.494Z,97.40
2022-09-23T02:38:38.529Z,97.40
2022-09-23T02:41:11.082Z,97.40
2022-09-23T02:43:47.442Z,97.40
2022-09-23T02:46:16.307Z,97.40
2022-09-23T02:48:50.579Z,97.40
2022-09-23T02:51:19.269Z,97.50
2022-09-23T02:53:48.910Z,97.40
2022-09-23T02:56:19.648Z,97.80
2022-09-23T02:58:48.406Z,97.50
2022-09-23T03:01:32.743Z,97.40
2022-09-23T03:04:13.103Z,97.40
2022-09-23T03:06:49.222Z,97.40
2022-09-23T03:09:23.994Z,97.50
2022-09-23T03:11:58.842Z,97.60
2022-09-23T03:14:31.796Z,97.60
2022-09-23T03:17:05.250Z,97.60
2022-09-23T03:19:41.961Z,97.70
2022-09-23T03:22:13.544Z,97.70
2022-09-23T03:24:45.223Z,97.70
2022-09-23T03:27:17.845Z,97.80
2022-09-23T03:29:48.948Z,97.80
2022-09-23T03:32:20.428Z,97.90
2022-09-23T03:34:52.759Z,97.90
2022-09-23T03:37:26.288Z,98.00
2022-09-23T03:39:58.522Z,97.90
2022-09-23T03:42:30.143Z,97.90
2022-09-23T03:44:59.075Z,98.00
2022-09-23T03:47:31.220Z,98.00
2022-09-23T03:50:00.816Z,98.00
2022-09-23T03:52:29.641Z,98.00
2022-09-23T03:54:57.985Z,98.00
2022-09-23T03:57:26.506Z,98.10
2022-09-23T03:59:55.098Z,98.10
2022-09-23T04:02:23.200Z,98.20
2022-09-23T04:04:51.653Z,98.20
2022-09-23T04:07:21.235Z,98.50
2022-09-23T04:09:49.269Z,98.20
2022-09-23T04:12:18.254Z,98.20
2022-09-23T04:14:47.084Z,98.20
2022-09-23T04:17:15.518Z,98.30
2022-09-23T04:19:43.751Z,98.30
2022-09-23T04:22:12.106Z,98.20
2022-09-23T04:24:43.790Z,98.30
2022-09-23T04:27:12.100Z,98.30
2022-09-23T04:29:40.099Z,98.30
2022-09-23T04:32:08.312Z,98.30
2022-09-23T04:34:36.460Z,98.30
2022-09-23T04:37:05.016Z,98.30
2022-09-23T04:39:33.142Z,98.40
2022-09-23T04:42:04.268Z,98.40
2022-09-23T04:44:33.042Z,98.40
2022-09-23T04:47:01.051Z,98.50
2022-09-23T04:49:32.562Z,98.50
2022-09-23T04:52:00.674Z,98.50
2022-09-23T04:54:29.513Z,98.50
2022-09-23T04:56:57.638Z,98.60
2022-09-23T04:59:27.110Z,98.60
2022-09-23T05:01:55.573Z,98.60
2022-09-23T05:04:23.666Z,98.70
2022-09-23T05:06:51.780Z,98.70
2022-09-23T05:09:20.071Z,98.70
2022-09-23T05:11:48.235Z,98.70
2022-09-23T05:14:16.431Z,98.70
2022-09-23T05:16:45.983Z,98.70
2022-09-23T05:19:14.211Z,98.70
2022-09-23T05:21:42.492Z,98.70
2022-09-23T05:24:10.835Z,98.70
2022-09-23T05:26:39.425Z,98.70
2022-09-23T05:29:07.947Z,98.80
2022-09-23T05:31:36.822Z,98.90
2022-09-23T05:34:07.238Z,98.90
2022-09-23T05:36:38.612Z,98.90
2022-09-23T05:39:09.353Z,98.90
2022-09-23T05:41:38.544Z,98.90
2022-09-23T05:44:06.911Z,98.90
2022-09-23T05:46:35.251Z,98.90
2022-09-23T05:49:04.413Z,98.90
2022-09-23T05:51:35.901Z,98.90
2022-09-23T05:54:04.495Z,98.90
2022-09-23T05:56:33.975Z,98.90
2022-09-23T05:59:03.537Z,98.80
2022-09-23T06:01:34.374Z,98.80
2022-09-23T06:04:04.730Z,98.80
2022-09-23T06:06:37.074Z,98.80
2022-09-23T06:09:05.798Z,98.80
2022-09-23T06:11:35.708Z,98.80
2022-09-23T06:14:04.409Z,98.80
2022-09-23T06:16:35.129Z,98.80
2022-09-23T06:19:06.898Z,98.80
2022-09-23T06:21:38.206Z,98.70
2022-09-23T06:24:07.926Z,98.70
2022-09-23T06:26:38.103Z,98.70
2022-09-23T06:29:12.628Z,98.70
2022-09-23T06:31:42.228Z,98.70
2022-09-23T06:34:13.415Z,98.70
2022-09-23T06:36:45.828Z,98.60
2022-09-23T06:39:15.346Z,98.60
2022-09-23T06:41:43.680Z,98.50
2022-09-23T06:44:12.003Z,98.50
2022-09-23T06:46:40.160Z,98.50
2022-09-23T06:49:08.358Z,98.40
2022-09-23T06:51:36.982Z,98.40
2022-09-23T06:54:06.804Z,98.40
2022-09-23T06:56:39.104Z,98.40
2022-09-23T06:59:08.991Z,98.40
2022-09-23T07:01:37.223Z,98.40
2022-09-23T07:04:05.448Z,98.30
2022-09-23T07:06:33.601Z,98.20
2022-09-23T07:09:03.318Z,98.20
2022-09-23T07:11:33.035Z,98.20
2022-09-23T07:14:01.256Z,98.10
2022-09-23T07:16:29.510Z,98.10
2022-09-23T07:18:57.835Z,98.10
2022-09-23T07:21:26.369Z,98.00
2022-09-23T07:23:55.274Z,97.90
2022-09-23T07:26:23.581Z,98.20
2022-09-23T07:28:56.999Z,97.70
2022-09-23T07:31:37.498Z,97.70
2022-09-23T07:34:07.639Z,97.60
2022-09-23T07:36:37.401Z,97.60
2022-09-23T07:39:06.256Z,97.50
2022-09-23T07:41:35.228Z,97.50
2022-09-23T07:44:06.488Z,97.40
2022-09-23T07:46:36.506Z,97.30
2022-09-23T07:49:05.976Z,97.20
2022-09-23T07:51:36.781Z,97.20
2022-09-23T07:54:07.930Z,97.00
2022-09-23T07:56:37.346Z,96.70
2022-09-23T07:59:09.433Z,96.60
2022-09-23T08:01:39.988Z,96.50
2022-09-23T08:04:11.507Z,96.50
2022-09-23T08:06:42.700Z,96.30
2022-09-23T08:09:11.509Z,96.20
2022-09-23T08:11:42.184Z,96.20
2022-09-23T08:14:13.710Z,96.10
2022-09-23T08:16:44.152Z,96.10
2022-09-23T08:19:13.237Z,96.10
2022-09-23T08:21:41.861Z,96.10
2022-09-23T08:24:14.240Z,96.00
2022-09-23T08:26:42.433Z,96.00
2022-09-23T08:29:14.008Z,95.90
2022-09-23T08:31:42.145Z,95.80
2022-09-23T08:34:10.306Z,95.70
2022-09-23T08:36:39.883Z,95.60
2022-09-23T08:39:08.305Z,95.70
2022-09-23T08:41:43.568Z,95.60
2022-09-23T08:44:17.166Z,95.60
2022-09-23T08:46:50.851Z,95.40
2022-09-23T08:49:26.817Z,95.20
2022-09-23T08:51:56.951Z,95.10
2022-09-23T08:54:28.399Z,95.10
2022-09-23T08:57:00.964Z,95.00
2022-09-23T08:59:38.274Z,94.90
2022-09-23T09:02:12.731Z,94.80
2022-09-23T09:04:44.863Z,94.60
2022-09-23T09:07:35.733Z,94.50
2022-09-23T09:10:10.541Z,94.40
2022-09-23T09:12:43.508Z,94.30
2022-09-23T09:15:16.647Z,94.30
2022-09-23T09:17:59.324Z,94.30
2022-09-23T09:20:39.052Z,94.20
2022-09-23T09:23:20.163Z,93.90
2022-09-23T09:25:50.862Z,93.70
2022-09-23T09:28:24.753Z,93.70
2022-09-23T09:30:57.727Z,93.70
2022-09-23T09:33:30.596Z,93.70
2022-09-23T09:36:09.010Z,93.50
2022-09-23T09:38:37.962Z,93.60
2022-09-23T09:41:14.932Z,93.60
2022-09-23T09:43:48.715Z,93.60
2022-09-23T09:46:33.367Z,93.50
2022-09-23T09:49:05.974Z,93.40
2022-09-23T09:51:34.055Z,93.20
2022-09-23T09:54:18.861Z,92.90
2022-09-23T09:59:25.134Z,92.70
2022-09-23T10:02:14.527Z,92.70
2022-09-23T10:04:42.898Z,92.50
2022-09-23T10:07:14.704Z,92.50
2022-09-23T10:09:51.018Z,92.40
2022-09-23T10:12:20.729Z,92.20
2022-09-23T10:14:51.535Z,91.90
2022-09-23T10:17:23.222Z,91.50
2022-09-23T10:19:58.104Z,91.20
2022-09-23T10:22:30.016Z,91.00
2022-09-23T10:25:03.438Z,90.80
2022-09-23T10:27:33.684Z,90.50
2022-09-23T10:30:04.221Z,90.20
2022-09-23T10:32:37.382Z,90.10
2022-09-23T10:35:16.773Z,89.80
2022-09-23T10:37:48.481Z,89.50
2022-09-23T10:40:45.558Z,89.40
2022-09-23T10:43:40.565Z,89.50
2022-09-23T10:46:27.168Z,89.30
2022-09-23T10:49:18.982Z,89.20
2022-09-23T10:51:57.956Z,88.90
2022-09-23T10:54:34.583Z,88.80
2022-09-23T10:57:29.226Z,88.60
2022-09-23T11:00:05.040Z,88.30
2022-09-23T11:02:54.795Z,87.60
2022-09-23T11:05:36.649Z,87.30
2022-09-23T11:08:20.768Z,86.90
2022-09-23T11:11:00.573Z,86.90
2022-09-23T11:13:43.826Z,86.40
2022-09-23T11:16:22.658Z,86.00
2022-09-23T11:19:34.409Z,85.90
2022-09-23T11:22:23.940Z,85.90
2022-09-23T11:25:26.712Z,85.90
2022-09-23T11:28:24.066Z,85.50
2022-09-23T11:31:04.197Z,85.30
2022-09-23T11:33:45.337Z,85.10
2022-09-23T11:36:21.803Z,85.00
2022-09-23T11:38:53.589Z,85.10
2022-09-23T11:41:25.729Z,85.40
2022-09-23T11:43:59.675Z,85.20
2022-09-23T11:46:35.146Z,85.20
2022-09-23T11:49:09.367Z,84.80
2022-09-23T11:51:41.411Z,84.80
2022-09-23T11:54:20.622Z,84.80
2022-09-23T11:56:54.995Z,85.50
2022-09-23T11:59:39.986Z,86.10
2022-09-23T12:02:22.887Z,86.60
2022-09-23T12:05:01.430Z,86.00
2022-09-23T12:07:40.741Z,85.50
2022-09-23T12:10:11.986Z,85.40
2022-09-23T12:12:48.924Z,85.00
2022-09-23T12:15:30.082Z,84.50
2022-09-23T12:18:13.920Z,84.10
2022-09-23T12:20:54.678Z,83.90
2022-09-23T12:23:45.087Z,83.70
2022-09-23T12:26:19.202Z,83.70
2022-09-23T12:28:50.463Z,83.40
2022-09-23T12:31:20.736Z,83.40
2022-09-23T12:33:54.294Z,83.20
2022-09-23T12:36:28.677Z,83.10
2022-09-23T12:39:03.244Z,82.90
2022-09-23T12:41:37.534Z,82.90
2022-09-23T12:44:27.414Z,82.90
2022-09-23T12:47:29.538Z,82.20
2022-09-23T12:49:58.207Z,81.90
2022-09-23T12:52:29.384Z,82.00
2022-09-23T12:54:58.995Z,82.10
2022-09-23T12:57:52.965Z,81.70
2022-09-23T13:00:27.442Z,81.10
2022-09-23T13:03:17.428Z,81.00
2022-09-23T13:06:06.231Z,81.20
2022-09-23T13:08:38.920Z,80.70
2022-09-23T13:11:18.008Z,80.30
2022-09-23T13:13:50.382Z,80.10
2022-09-23T13:16:23.938Z,80.00
2022-09-23T13:18:54.685Z,79.70
2022-09-23T13:21:52.470Z,79.70
2022-09-23T13:24:36.025Z,79.80
2022-09-23T13:27:12.443Z,79.60
2022-09-23T13:29:45.954Z,79.60
2022-09-23T13:32:17.708Z,79.10
2022-09-23T13:34:56.177Z,78.70
2022-09-23T13:37:26.403Z,78.00
2022-09-23T13:40:07.730Z,77.70
2022-09-23T13:42:39.921Z,77.00
2022-09-23T13:45:16.671Z,76.40
2022-09-23T13:47:46.268Z,76.10
2022-09-23T13:50:19.803Z,76.00
2022-09-23T13:52:52.365Z,77.10
2022-09-23T13:55:28.941Z,76.90
2022-09-23T13:58:02.245Z,77.30
2022-09-23T14:00:38.383Z,77.70
2022-09-23T14:03:19.171Z,77.50
2022-09-23T14:05:48.222Z,76.50
2022-09-23T14:08:16.487Z,76.30
2022-09-23T14:10:47.005Z,76.80
2022-09-23T14:13:22.403Z,76.80
2022-09-23T14:15:58.382Z,76.40
2022-09-23T14:18:39.461Z,76.10
2022-09-23T14:21:08.272Z,75.90
2022-09-23T14:23:36.736Z,76.00
2022-09-23T14:26:05.182Z,76.00
2022-09-23T14:28:33.516Z,76.70
2022-09-23T14:31:03.935Z,77.40
2022-09-23T14:33:34.721Z,77.70
2022-09-23T14:36:07.942Z,76.90
2022-09-23T14:38:52.265Z,77.40
2022-09-23T14:41:24.075Z,79.20
2022-09-23T14:43:58.710Z,80.10
2022-09-23T14:46:29.851Z,79.50
2022-09-23T14:49:02.952Z,78.00
2022-09-23T14:51:34.264Z,78.90
2022-09-23T14:54:37.283Z,81.10
2022-09-23T14:57:25.339Z,81.50
2022-09-23T14:59:56.130Z,79.90
2022-09-23T15:02:32.930Z,79.60
2022-09-23T15:05:19.490Z,79.00
2022-09-23T15:07:50.713Z,78.60
2022-09-23T15:10:23.740Z,78.10
2022-09-23T15:12:54.044Z,77.70
2022-09-23T15:15:28.258Z,76.90
2022-09-23T15:18:05.013Z,77.10
2022-09-23T15:20:33.545Z,77.10
2022-09-23T15:23:02.097Z,77.10
2022-09-23T15:25:34.302Z,77.40
2022-09-23T15:28:05.920Z,77.50
2022-09-23T15:30:36.855Z,77.40
2022-09-23T15:33:06.906Z,77.30
2022-09-23T15:35:35.473Z,77.50
2022-09-23T15:38:04.073Z,77.60
2022-09-23T15:40:35.543Z,77.90
2022-09-23T15:43:20.249Z,78.40
2022-09-23T15:45:53.074Z,78.80
2022-09-23T15:48:25.737Z,79.20
2022-09-23T15:50:55.342Z,79.60
2022-09-23T15:53:25.586Z,80.00
2022-09-23T15:55:54.184Z,80.30
2022-09-23T15:58:23.649Z,80.70
2022-09-23T16:00:56.666Z,80.90
2022-09-23T16:03:29.143Z,80.90
2022-09-23T16:06:02.645Z,80.90
2022-09-23T16:08:33.235Z,81.20
2022-09-23T16:11:03.654Z,81.30
2022-09-23T16:13:31.842Z,81.50
2022-09-23T16:16:00.003Z,81.80
2022-09-23T16:18:29.846Z,82.00
2022-09-23T16:20:59.069Z,82.10
2022-09-23T16:23:36.084Z,82.40
2022-09-23T16:26:07.337Z,82.70
2022-09-23T16:28:35.508Z,82.80
2022-09-23T16:31:03.921Z,83.10
2022-09-23T16:33:33.867Z,83.30
2022-09-23T16:36:02.942Z,83.50
2022-09-23T16:38:32.047Z,83.80
2022-09-23T16:41:00.916Z,84.00
2022-09-23T16:43:31.801Z,84.70
2022-09-23T16:45:59.980Z,85.40
2022-09-23T16:48:28.574Z,86.00
2022-09-23T16:50:58.000Z,86.80
2022-09-23T16:53:29.562Z,87.70
2022-09-23T16:55:58.349Z,88.50
2022-09-23T16:58:26.515Z,89.70
2022-09-23T17:01:16.436Z,90.20
2022-09-23T17:03:44.621Z,90.50
2022-09-23T17:06:14.482Z,90.70
2022-09-23T17:08:44.818Z,91.00
2022-09-23T17:11:14.439Z,91.40
2022-09-23T17:13:42.756Z,91.70
2022-09-23T17:16:12.797Z,92.00
2022-09-23T17:18:40.806Z,92.30
2022-09-23T17:21:09.451Z,92.70
2022-09-23T17:23:38.894Z,92.90
2022-09-23T17:26:09.779Z,93.10
2022-09-23T17:28:38.266Z,93.30
2022-09-23T17:31:08.852Z,93.60
2022-09-23T17:33:39.166Z,93.80
2022-09-23T17:36:09.539Z,94.00
2022-09-23T17:38:40.221Z,94.30
2022-09-23T17:41:10.057Z,94.50
2022-09-23T17:43:39.500Z,94.70
2022-09-23T17:46:10.179Z,94.90
2022-09-23T17:48:41.444Z,95.20
2022-09-23T17:51:12.425Z,95.40
2022-09-23T17:53:43.326Z,95.70
2022-09-23T17:56:14.719Z,95.90
2022-09-23T17:58:43.141Z,96.20
2022-09-23T18:01:13.279Z,96.40
2022-09-23T18:03:43.370Z,96.50
2022-09-23T18:06:13.695Z,96.70
2022-09-23T18:08:46.215Z,96.90
2022-09-23T18:11:19.467Z,97.10
2022-09-23T18:13:52.757Z,97.30
2022-09-23T18:16:22.893Z,97.50
2022-09-23T18:18:52.647Z,97.60
2022-09-23T18:21:20.982Z,97.70
2022-09-23T18:23:51.681Z,97.90
2022-09-23T18:26:21.394Z,98.00
2022-09-23T18:28:49.808Z,98.10
2022-09-23T18:31:18.170Z,98.20
2022-09-23T18:33:50.648Z,98.40
2022-09-23T18:36:18.984Z,98.50
2022-09-23T18:38:47.952Z,98.50
2022-09-23T18:41:18.352Z,98.70
2022-09-23T18:43:48.695Z,98.80
2022-09-23T18:46:19.444Z,98.90
2022-09-23T18:49:05.373Z,99.00
2022-09-23T18:51:35.252Z,99.00
2022-09-23T18:54:05.481Z,99.10
2022-09-23T18:56:39.895Z,99.30
2022-09-23T18:59:09.500Z,99.40
2022-09-23T19:01:37.836Z,99.50
2022-09-23T19:04:06.834Z,99.50
2022-09-23T19:06:36.054Z,99.60
2022-09-23T19:09:06.643Z,99.90
2022-09-23T19:11:38.659Z,99.90
2022-09-23T19:14:11.045Z,99.90
2022-09-23T19:16:40.746Z,99.90
2022-09-23T19:19:09.690Z,99.90
2022-09-23T19:21:37.915Z,99.90
2022-09-23T19:24:08.370Z,99.90
2022-09-23T19:26:40.326Z,99.90
2022-09-23T19:29:13.885Z,99.90
2022-09-23T19:31:42.593Z,99.90
2022-09-23T19:34:14.353Z,99.90
2022-09-23T19:36:44.277Z,99.90
2022-09-23T19:39:17.147Z,99.90
2022-09-23T19:41:47.188Z,99.90
2022-09-23T19:44:16.649Z,99.90
2022-09-23T19:46:46.372Z,99.90
2022-09-23T19:49:15.322Z,99.90
2022-09-23T19:51:44.461Z,99.90
2022-09-23T19:54:13.070Z,99.90
2022-09-23T19:56:41.547Z,99.90
2022-09-23T19:59:14.151Z,99.90
2022-09-23T20:01:44.964Z,99.90
2022-09-23T20:04:13.348Z,99.90
2022-09-23T20:06:41.473Z,99.90
2022-09-23T20:09:10.177Z,99.90
2022-09-23T20:11:38.913Z,99.90
2022-09-23T20:14:07.152Z,99.90
2022-09-23T20:16:37.983Z,99.90
2022-09-23T20:19:06.601Z,99.90
2022-09-23T20:21:35.444Z,99.90
2022-09-23T20:24:06.789Z,99.90
2022-09-23T20:26:52.573Z,99.90
2022-09-23T20:29:20.783Z,99.90
2022-09-23T20:31:50.290Z,99.90
2022-09-23T20:34:18.854Z,99.90
2022-09-23T20:36:46.887Z,99.90
2022-09-23T20:39:15.161Z,99.90
2022-09-23T20:41:43.250Z,99.90
2022-09-23T20:44:14.034Z,99.90
2022-09-23T20:46:46.923Z,99.90
2022-09-23T20:49:18.707Z,99.90
2022-09-23T20:51:49.067Z,99.90
2022-09-23T20:54:18.979Z,99.90
2022-09-23T20:56:47.320Z,99.90
2022-09-23T20:59:17.844Z,99.90
2022-09-23T21:01:47.599Z,99.90
2022-09-23T21:04:18.126Z,99.90
2022-09-23T21:06:46.882Z,99.90
2022-09-23T21:09:15.006Z,99.90
2022-09-23T21:11:43.305Z,99.90
2022-09-23T21:14:11.608Z,99.90
2022-09-23T21:16:40.481Z,99.90
2022-09-23T21:19:09.100Z,99.90
2022-09-23T21:21:39.182Z,99.90
2022-09-23T21:24:36.110Z,99.90
2022-09-23T21:26:55.879Z,99.90
2022-09-23T21:29:24.262Z,99.90
2022-09-23T21:31:52.729Z,99.90
2022-09-23T21:34:20.973Z,99.90
2022-09-23T21:36:50.666Z,99.90
2022-09-23T21:39:19.470Z,99.90
2022-09-23T21:41:47.692Z,99.90
2022-09-23T21:44:16.060Z,99.90
2022-09-23T21:46:44.640Z,99.90
2022-09-23T21:49:13.233Z,99.90
2022-09-23T21:51:42.380Z,99.90
2022-09-23T21:54:15.746Z,99.90
2022-09-23T21:56:45.238Z,99.90
2022-09-23T21:59:13.666Z,99.90
2022-09-23T22:01:45.090Z,99.90
2022-09-23T22:04:17.490Z,99.90
2022-09-23T22:06:50.590Z,99.90
2022-09-23T22:09:22.046Z,99.90
2022-09-23T22:12:11.225Z,99.90
2022-09-23T22:14:39.569Z,99.90
2022-09-23T22:17:10.733Z,99.90
2022-09-23T22:19:45.782Z,99.90
2022-09-23T22:22:17.594Z,99.90
2022-09-23T22:24:48.061Z,99.90
2022-09-23T22:27:18.668Z,99.90
2022-09-23T22:30:04.506Z,99.90
2022-09-23T22:32:41.710Z,99.90
2022-09-23T22:35:11.154Z,99.90
2022-09-23T22:37:42.673Z,99.90
2022-09-23T22:40:15.123Z,99.90
2022-09-23T22:42:44.569Z,99.90
2022-09-23T22:45:13.621Z,99.90
2022-09-23T22:47:45.833Z,99.90
2022-09-23T22:50:15.286Z,99.90
2022-09-23T22:52:43.871Z,99.90
2022-09-23T22:55:14.149Z,99.90
2022-09-23T22:57:42.344Z,99.90
2022-09-23T23:00:12.152Z,99.90
2022-09-23T23:02:40.432Z,99.90
2022-09-23T23:05:09.448Z,99.90
2022-09-23T23:07:37.455Z,99.90
2022-09-23T23:10:08.926Z,99.90
2022-09-23T23:12:40.251Z,99.90
2022-09-23T23:15:12.735Z,99.90
2022-09-23T23:17:43.656Z,99.90
2022-09-23T23:20:11.980Z,99.90
2022-09-23T23:22:39.988Z,99.90
2022-09-23T23:25:09.778Z,99.90
2022-09-23T23:27:39.701Z,99.90
2022-09-23T23:30:09.456Z,99.90
2022-09-23T23:32:38.329Z,99.90
2022-09-23T23:35:07.350Z,99.90
2022-09-23T23:37:35.499Z,99.90
2022-09-23T23:40:04.210Z,99.90
2022-09-23T23:42:32.884Z,99.90
2022-09-23T23:45:02.661Z,99.90
2022-09-23T23:47:30.976Z,99.90
2022-09-23T23:49:59.154Z,99.90
2022-09-23T23:52:27.228Z,99.90
2022-09-23T23:54:55.536Z,99.90
2022-09-23T23:57:23.912Z,99.90
2022-09-23T23:59:52.097Z,99.90
